createdAt,value
2022-10-24T00:00:58.575Z,17.36
2022-10-24T00:06:20.756Z,17.29
2022-10-24T00:11:42.933Z,17.27
2022-10-24T00:17:04.933Z,17.18
2022-10-24T00:22:27.632Z,17.16
2022-10-24T00:27:49.294Z,17.09
2022-10-24T00:33:11.028Z,17.03
2022-10-24T00:38:32.677Z,17.00
2022-10-24T00:44:12.650Z,17.01
2022-10-24T00:49:50.780Z,17.01
2022-10-24T00:55:14.407Z,16.92
2022-10-24T01:00:36.199Z,16.86
2022-10-24T01:06:19.074Z,16.80
2022-10-24T01:11:59.262Z,16.81
2022-10-24T01:17:23.867Z,16.71
2022-10-24T01:23:06.776Z,16.68
2022-10-24T01:28:36.749Z,16.69
2022-10-24T01:34:10.303Z,16.69
2022-10-24T01:39:38.551Z,16.71
2022-10-24T01:45:02.252Z,16.74
2022-10-24T01:50:26.540Z,16.73
2022-10-24T01:55:48.896Z,16.61
2022-10-24T02:01:16.335Z,16.62
2022-10-24T02:06:41.617Z,16.58
2022-10-24T02:12:07.364Z,16.51
2022-10-24T02:23:03.408Z,16.49
2022-10-24T02:28:33.149Z,16.58
2022-10-24T02:33:56.102Z,16.60
2022-10-24T02:39:19.402Z,16.58
2022-10-24T02:44:43.865Z,16.64
2022-10-24T02:50:05.937Z,16.65
2022-10-24T02:55:27.639Z,16.65
2022-10-24T03:00:49.369Z,16.62
2022-10-24T03:06:11.657Z,16.61
2022-10-24T03:11:33.500Z,16.66
2022-10-24T03:16:55.289Z,16.70
2022-10-24T03:22:17.011Z,16.76
2022-10-24T03:27:38.998Z,16.79
2022-10-24T03:33:00.689Z,16.77
2022-10-24T03:38:23.654Z,16.72
2022-10-24T03:43:45.382Z,16.68
2022-10-24T03:49:07.130Z,16.63
2022-10-24T03:54:28.802Z,16.67
2022-10-24T03:59:50.543Z,16.62
2022-10-24T04:05:12.798Z,16.55
2022-10-24T04:10:34.528Z,16.50
2022-10-24T04:15:56.221Z,16.51
2022-10-24T04:21:21.777Z,16.52
2022-10-24T04:26:43.857Z,16.48
2022-10-24T04:32:05.587Z,16.44
2022-10-24T04:37:27.292Z,16.48
2022-10-24T04:42:49.070Z,16.47
2022-10-24T04:48:10.808Z,16.33
2022-10-24T04:53:32.512Z,16.37
2022-10-24T04:58:54.231Z,16.38
2022-10-24T05:04:16.011Z,16.46
2022-10-24T05:09:37.725Z,16.53
2022-10-24T05:14:59.383Z,16.67
2022-10-24T05:20:21.117Z,16.74
2022-10-24T05:25:42.780Z,16.79
2022-10-24T05:31:04.857Z,16.78
2022-10-24T05:36:26.510Z,16.77
2022-10-24T05:41:49.506Z,16.68
2022-10-24T05:47:12.032Z,16.58
2022-10-24T05:52:36.256Z,16.57
2022-10-24T05:57:57.952Z,16.52
2022-10-24T06:03:19.633Z,16.53
2022-10-24T06:08:41.342Z,16.51
2022-10-24T06:14:03.736Z,16.02
2022-10-24T06:19:25.517Z,15.64
2022-10-24T06:24:47.243Z,15.50
2022-10-24T06:30:10.558Z,15.54
2022-10-24T06:35:32.291Z,15.46
2022-10-24T06:40:54.029Z,15.48
2022-10-24T06:46:17.272Z,15.51
2022-10-24T06:51:39.937Z,15.52
2022-10-24T06:57:01.609Z,15.50
2022-10-24T07:02:23.365Z,15.55
2022-10-24T07:07:45.471Z,15.40
2022-10-24T07:13:07.445Z,15.36
2022-10-24T07:18:29.153Z,15.42
2022-10-24T07:23:52.125Z,15.35
2022-10-24T07:29:13.842Z,15.40
2022-10-24T07:34:35.592Z,15.46
2022-10-24T07:39:57.300Z,15.35
2022-10-24T07:45:19.042Z,15.38
2022-10-24T07:50:46.334Z,15.41
2022-10-24T07:56:11.827Z,15.55
2022-10-24T08:01:33.634Z,15.45
2022-10-24T08:06:56.582Z,15.52
2022-10-24T08:12:18.619Z,15.54
2022-10-24T08:17:40.280Z,15.57
2022-10-24T08:23:01.968Z,15.62
2022-10-24T08:28:23.953Z,15.54
2022-10-24T08:33:46.993Z,15.35
2022-10-24T08:39:08.815Z,15.48
2022-10-24T08:44:37.289Z,15.60
2022-10-24T08:50:03.607Z,15.62
2022-10-24T08:55:48.035Z,15.60
2022-10-24T09:01:44.432Z,15.77
2022-10-24T09:07:08.967Z,15.83
2022-10-24T09:12:30.689Z,15.82
2022-10-24T09:17:53.510Z,15.78
2022-10-24T09:23:17.225Z,15.75
2022-10-24T09:28:39.346Z,15.73
2022-10-24T09:34:01.251Z,15.73
2022-10-24T09:39:24.660Z,15.76
2022-10-24T09:44:46.954Z,15.76
2022-10-24T09:50:20.397Z,15.76
2022-10-24T09:55:46.655Z,15.72
2022-10-24T10:01:26.487Z,15.69
2022-10-24T10:06:50.152Z,15.70
2022-10-24T10:12:29.022Z,15.79
2022-10-24T10:17:53.161Z,15.75
2022-10-24T10:23:25.624Z,15.80
2022-10-24T10:28:58.106Z,15.90
2022-10-24T10:34:35.653Z,15.97
2022-10-24T10:40:09.683Z,16.13
2022-10-24T10:45:39.126Z,16.21
2022-10-24T10:51:23.702Z,16.20
2022-10-24T10:56:53.177Z,16.18
2022-10-24T11:02:26.910Z,16.27
2022-10-24T11:07:56.283Z,16.29
2022-10-24T11:13:23.137Z,16.27
2022-10-24T11:18:50.773Z,16.30
2022-10-24T11:24:21.423Z,16.28
2022-10-24T11:29:48.725Z,16.27
2022-10-24T11:35:19.725Z,16.34
2022-10-24T11:40:43.407Z,16.37
2022-10-24T11:46:12.797Z,16.34
2022-10-24T11:51:42.084Z,16.35
2022-10-24T11:57:20.214Z,16.38
2022-10-24T12:03:14.447Z,16.34
2022-10-24T12:08:58.893Z,16.39
2022-10-24T12:14:41.988Z,16.39
2022-10-24T12:20:11.498Z,16.46
2022-10-24T12:25:36.315Z,16.38
2022-10-24T12:31:22.291Z,16.37
2022-10-24T12:37:11.967Z,16.38
2022-10-24T12:42:36.394Z,16.39
2022-10-24T12:47:58.025Z,16.42
2022-10-24T12:53:31.977Z,16.44
2022-10-24T12:58:59.687Z,16.50
2022-10-24T13:04:58.904Z,16.57
2022-10-24T13:10:39.029Z,16.57
2022-10-24T13:16:23.376Z,16.68
2022-10-24T13:21:52.772Z,16.57
2022-10-24T13:27:24.702Z,16.66
2022-10-24T13:32:46.797Z,16.67
2022-10-24T13:38:09.917Z,16.69
2022-10-24T13:43:31.960Z,16.69
2022-10-24T13:48:54.840Z,16.60
2022-10-24T13:54:19.212Z,16.53
2022-10-24T13:59:40.870Z,16.59
2022-10-24T14:05:02.971Z,16.65
2022-10-24T14:10:26.117Z,16.64
2022-10-24T14:15:51.707Z,16.59
2022-10-24T14:21:19.142Z,16.69
2022-10-24T14:26:42.640Z,16.59
2022-10-24T14:32:10.198Z,16.47
2022-10-24T14:37:36.029Z,16.61
2022-10-24T14:42:58.569Z,16.61
2022-10-24T14:48:24.061Z,16.62
2022-10-24T14:53:48.538Z,16.75
2022-10-24T14:59:30.255Z,16.84
2022-10-24T15:04:53.481Z,16.94
2022-10-24T15:10:15.137Z,16.94
2022-10-24T15:15:57.905Z,17.09
2022-10-24T15:21:22.794Z,17.04
2022-10-24T15:26:45.622Z,16.93
2022-10-24T15:32:09.841Z,16.75
2022-10-24T15:37:31.642Z,16.78
2022-10-24T15:42:53.375Z,16.76
2022-10-24T15:48:15.160Z,16.60
2022-10-24T15:53:36.836Z,16.56
2022-10-24T15:58:58.565Z,16.55
2022-10-24T16:04:21.500Z,16.51
2022-10-24T16:09:43.283Z,16.48
2022-10-24T16:15:05.551Z,16.49
2022-10-24T16:20:27.554Z,16.43
2022-10-24T16:25:49.325Z,16.33
2022-10-24T16:31:12.009Z,16.25
2022-10-24T16:36:33.845Z,16.19
2022-10-24T16:41:55.883Z,16.19
2022-10-24T16:47:18.196Z,16.18
2022-10-24T16:52:39.876Z,16.13
2022-10-24T16:58:01.621Z,16.09
2022-10-24T17:03:23.326Z,16.08
2022-10-24T17:08:45.145Z,16.09
2022-10-24T17:19:36.325Z,16.08
2022-10-24T17:24:58.220Z,16.06
2022-10-24T17:30:23.810Z,16.02
2022-10-24T17:35:55.755Z,15.91
2022-10-24T17:41:30.996Z,15.78
2022-10-24T17:46:55.945Z,15.73
2022-10-24T17:52:23.358Z,15.72
2022-10-24T17:57:45.390Z,15.71
2022-10-24T18:03:08.485Z,15.67
2022-10-24T18:08:30.701Z,15.71
2022-10-24T18:13:52.510Z,15.80
2022-10-24T18:19:14.367Z,15.61
2022-10-24T18:24:36.639Z,14.85
2022-10-24T18:29:58.612Z,14.54
2022-10-24T18:35:22.308Z,14.24
2022-10-24T18:40:44.337Z,13.84
2022-10-24T18:46:11.453Z,13.67
2022-10-24T18:51:39.611Z,13.58
2022-10-24T18:57:01.402Z,13.52
2022-10-24T19:02:40.433Z,13.52
2022-10-24T19:08:02.273Z,13.37
2022-10-24T19:13:25.486Z,13.59
2022-10-24T19:19:05.902Z,13.81
2022-10-24T19:24:27.630Z,13.93
2022-10-24T19:29:49.308Z,14.03
2022-10-24T19:35:11.078Z,13.82
2022-10-24T19:40:33.098Z,13.69
2022-10-24T19:46:07.716Z,13.56
2022-10-24T19:51:29.875Z,13.48
2022-10-24T19:56:55.006Z,13.52
2022-10-24T20:02:16.797Z,13.42
2022-10-24T20:07:38.570Z,13.43
2022-10-24T20:13:00.477Z,13.73
2022-10-24T20:18:24.010Z,13.94
2022-10-24T20:23:47.544Z,13.98
2022-10-24T20:29:09.372Z,13.93
2022-10-24T20:34:31.141Z,13.99
2022-10-24T20:39:52.871Z,14.08
2022-10-24T20:45:17.033Z,14.03
2022-10-24T20:50:40.779Z,13.96
2022-10-24T20:56:05.165Z,13.88
2022-10-24T21:01:28.859Z,13.74
2022-10-24T21:06:50.621Z,13.51
2022-10-24T21:12:12.273Z,13.42
2022-10-24T21:17:33.998Z,13.42
2022-10-24T21:22:55.768Z,13.27
2022-10-24T21:28:17.445Z,13.23
2022-10-24T21:33:41.524Z,13.26
2022-10-24T21:39:03.318Z,13.32
2022-10-24T21:44:25.404Z,13.33
2022-10-24T21:49:47.066Z,13.28
2022-10-24T21:55:09.053Z,13.38
2022-10-24T22:00:30.726Z,13.34
2022-10-24T22:05:56.888Z,13.33
2022-10-24T22:11:21.458Z,13.33
2022-10-24T22:16:44.004Z,13.21
2022-10-24T22:22:05.709Z,13.12
2022-10-24T22:27:27.546Z,13.04
2022-10-24T22:32:49.455Z,13.00
2022-10-24T22:38:11.421Z,12.78
2022-10-24T22:43:33.532Z,12.80
2022-10-24T22:49:01.752Z,12.76
2022-10-24T22:54:25.205Z,12.77
2022-10-24T22:59:47.135Z,12.77
2022-10-24T23:05:35.877Z,12.74
2022-10-24T23:10:57.800Z,12.61
2022-10-24T23:16:30.861Z,12.45
2022-10-24T23:22:03.139Z,12.46
2022-10-24T23:27:35.332Z,12.52
2022-10-24T23:32:57.252Z,12.52
2022-10-24T23:38:19.144Z,12.36
2022-10-24T23:43:41.070Z,12.37
2022-10-24T23:49:29.862Z,12.47
2022-10-24T23:54:51.812Z,12.46
